»·PEaware :: USC56 KSBA-KLAS

USC56 :: KSBA-KLAS

FLIGHT INFORMATION

Flight Status: Arrived
Operator: Unknown
More flights by this operator :: More flights under this callsign
Pilot: Andy P. (22680)
Aircraft: GATES LEARJET LEARJET 35/36
(LJ35)
More flights by this aircraft type
Origin: KSBA Santa Barbara Mun
United States
Destination: KLAS McCarran Intl
United States
More flights between these airports :: More routes between these airports
Route: +KWANG5 GINNA DAG CRESO4
File this flight plan on PilotEdge
Remarks:
Altitude:
(Current/Filed)
31,000ft
Speed:
(Current/Filed)
465kts
Departed: 30-Jun-20 02:19 PM
Arrived: 30-Jun-20 03:04 PM
Distance/Time
Traveled:
251nm/0:45
Distance/Time
To Go:
Arrived

Flight Plot

Page will automatically refresh every two minutes.

Flight plan parsing failed; only flown route is shown


Map Options




Map Legend


Flown Route
Filed Route
Departure Airport
Arrival Airport
Navaid (VOR, NDB)
Fix

Horizontal Profiles

Position Reports

Time Latitude Longitude Heading Altitude Ground
Speed
30-Jun-20 13:58 34.432050 -119.833391 178 13ft 0kts
30-Jun-20 13:59 34.432050 -119.833391 178 13ft 0kts
30-Jun-20 14:00 34.432050 -119.833391 178 13ft 0kts
30-Jun-20 14:01 34.432050 -119.833391 178 13ft 0kts
30-Jun-20 14:02 34.432050 -119.833391 178 13ft 0kts
30-Jun-20 14:03 34.432050 -119.833391 178 13ft 0kts
30-Jun-20 14:04 34.432050 -119.833391 178 13ft 0kts
30-Jun-20 14:05 34.432050 -119.833391 178 13ft 0kts
30-Jun-20 14:06 34.432050 -119.833391 178 13ft 0kts
30-Jun-20 14:07 34.432050 -119.833391 178 13ft 0kts
30-Jun-20 14:08 34.432050 -119.833391 178 13ft 0kts
30-Jun-20 14:09 34.432050 -119.833391 178 13ft 0kts
30-Jun-20 14:10 34.432050 -119.833390 178 13ft 0kts
30-Jun-20 14:11 34.432025 -119.833390 178 13ft 0kts
30-Jun-20 14:12 34.432023 -119.833390 178 13ft 0kts
30-Jun-20 14:13 34.432020 -119.833390 178 13ft 0kts
30-Jun-20 14:14 34.432029 -119.833128 19 13ft 7kts
30-Jun-20 14:15 34.431253 -119.835309 176 13ft 15kts
30-Jun-20 14:16 34.428803 -119.834606 178 13ft 0kts
30-Jun-20 14:17 34.427882 -119.835293 265 13ft 15kts
30-Jun-20 14:18 34.426939 -119.881159 260 1282ft 216kts
30-Jun-20 14:19 34.379822 -119.880196 103 3708ft 240kts
30-Jun-20 14:20 34.387241 -119.798364 82 6628ft 263kts
30-Jun-20 14:21 34.383938 -119.708876 116 11184ft 287kts
30-Jun-20 14:22 34.365074 -119.615047 72 15308ft 300kts
30-Jun-20 14:23 34.387133 -119.525383 71 18473ft 317kts
30-Jun-20 14:24 34.409869 -119.418922 72 21455ft 336kts
30-Jun-20 14:25 34.430654 -119.318860 73 23862ft 351kts
30-Jun-20 14:26 34.452476 -119.213034 73 25988ft 364kts
30-Jun-20 14:27 34.477401 -119.091470 74 28219ft 378kts
30-Jun-20 14:28 34.502856 -118.966583 74 30461ft 383kts
30-Jun-20 14:29 34.529586 -118.834815 75 31055ft 430kts
30-Jun-20 14:31 34.559205 -118.687727 75 31066ft 461kts
30-Jun-20 14:32 34.590024 -118.533638 75 31059ft 477kts
30-Jun-20 14:33 34.621405 -118.375633 75 31001ft 487kts
30-Jun-20 14:34 34.653132 -118.214703 75 30973ft 492kts
30-Jun-20 14:35 34.684903 -118.052352 75 30962ft 495kts
30-Jun-20 14:36 34.716613 -117.889083 76 30962ft 497kts
30-Jun-20 14:37 34.748228 -117.725030 76 30949ft 498kts
30-Jun-20 14:38 34.779606 -117.560943 76 30930ft 500kts
30-Jun-20 14:39 34.810918 -117.395909 76 30918ft 501kts
30-Jun-20 14:40 34.842061 -117.230456 76 30940ft 501kts
30-Jun-20 14:41 34.873023 -117.064633 76 30911ft 502kts
30-Jun-20 14:42 34.903136 -116.902024 76 29685ft 476kts
30-Jun-20 14:43 34.931866 -116.745729 76 27971ft 470kts
30-Jun-20 14:44 34.962716 -116.590024 69 26259ft 477kts
30-Jun-20 14:45 35.021457 -116.444760 58 24516ft 482kts
30-Jun-20 14:46 35.084652 -116.302527 58 23944ft 465kts
30-Jun-20 14:47 35.145902 -116.163785 58 23954ft 470kts
30-Jun-20 14:48 35.207041 -116.024580 59 22936ft 453kts
30-Jun-20 14:49 35.266545 -115.888656 59 20911ft 462kts
30-Jun-20 14:49 35.321186 -115.775466 50 18374ft 452kts
30-Jun-20 14:51 35.416358 -115.646066 45 15101ft 431kts
30-Jun-20 14:52 35.492409 -115.544114 46 12386ft 385kts
30-Jun-20 14:52 35.552653 -115.463489 46 12029ft 393kts
30-Jun-20 14:54 35.629034 -115.360811 46 10889ft 293kts
30-Jun-20 14:54 35.674391 -115.299739 46 9553ft 290kts
30-Jun-20 14:55 35.739202 -115.245526 23 8145ft 274kts
30-Jun-20 14:56 35.807106 -115.209299 22 8035ft 258kts
30-Jun-20 14:57 35.870862 -115.175047 23 7236ft 244kts
30-Jun-20 14:58 35.932499 -115.138562 28 5797ft 245kts
30-Jun-20 14:59 35.984783 -115.100431 22 4532ft 191kts
30-Jun-20 15:00 36.027910 -115.087875 7 3528ft 147kts
30-Jun-20 15:01 36.065610 -115.092716 306 2936ft 142kts
30-Jun-20 15:02 36.073650 -115.134853 269 2184ft 83kts
30-Jun-20 15:03 36.074849 -115.146179 313 2184ft 0kts
30-Jun-20 15:04 36.077472 -115.146556 347 2184ft 0kts
30-Jun-20 15:05 36.077535 -115.141100 90 2184ft 38kts
30-Jun-20 15:06 36.078329 -115.128832 92 2184ft 26kts
30-Jun-20 15:07 36.079587 -115.126867 89 2184ft 0kts
30-Jun-20 15:08 36.079587 -115.126867 89 2184ft 0kts

Navigation Log

Ident Type
Flight plan parsing failed, navigation log unavailable